Time;durP1;ratioP1;P1;durP2;ratioP2;P2;SDS_P1;SDS_P2;PMS_P1;PMS_P2;Temp;Humidity;BMP_temperature;BMP_pressure;BME280_temperature;BME280_humidity;BME280_pressure;Samples;Min_cycle;Max_cycle;Signal;HPM_P1;HPM_P2
2022/06/29 00:02:09;;;;;;;9.50;3.80;;;;;19.30;97717.20;;;;110371;1255;41158;-67
2022/06/29 00:04:39;;;;;;;11.10;4.60;;;;;19.30;97718.80;;;;110472;1254;42398;-67
2022/06/29 00:07:09;;;;;;;9.30;4.70;;;;;19.30;97719.20;;;;110459;1254;41155;-67
2022/06/29 00:09:39;;;;;;;24.80;4.40;;;;;19.40;97718.80;;;;110316;1255;42179;-68
2022/06/29 00:12:10;;;;;;;8.00;3.90;;;;;19.50;97715.40;;;;110526;1254;41340;-68
2022/06/29 00:14:44;;;;;;;9.00;4.10;;;;;19.50;97717.20;;;;110675;1255;41612;-68
2022/06/29 00:17:19;;;;;;;7.70;3.50;;;;;19.52;97720.60;;;;110513;1255;41928;-67
2022/06/29 00:19:49;;;;;;;8.60;3.70;;;;;19.50;97718.80;;;;110614;1254;41617;-67
2022/06/29 00:22:20;;;;;;;7.00;3.00;;;;;19.50;97721.00;;;;110531;1254;42218;-67
2022/06/29 00:24:49;;;;;;;7.10;3.10;;;;;19.50;97719.60;;;;110501;1256;42348;-67
2022/06/29 00:27:19;;;;;;;6.90;2.90;;;;;19.40;97721.60;;;;110554;1255;42088;-67
2022/06/29 00:29:51;;;;;;;8.90;3.90;;;;;19.38;97719.00;;;;110526;1255;40760;-65
2022/06/29 00:32:21;;;;;;;8.20;3.80;;;;;19.32;97715.40;;;;110409;1254;41278;-67
2022/06/29 00:34:52;;;;;;;8.20;3.90;;;;;19.30;97715.20;;;;110484;1255;41154;-67
2022/06/29 00:37:22;;;;;;;10.00;4.40;;;;;19.30;97712.20;;;;110570;1254;42193;-67
2022/06/29 00:39:52;;;;;;;9.50;4.80;;;;;19.20;97711.60;;;;110307;1254;41277;-67
2022/06/29 00:42:24;;;;;;;8.70;4.10;;;;;19.20;97710.20;;;;110512;1254;41609;-67
2022/06/29 00:44:55;;;;;;;10.30;4.80;;;;;19.20;97708.40;;;;110506;1254;41125;-67
2022/06/29 00:47:25;;;;;;;10.70;4.70;;;;;18.92;97707.80;;;;110460;1254;41554;-67
2022/06/29 00:49:57;;;;;;;11.40;4.20;;;;;18.88;97705.00;;;;110321;1254;41621;-67
2022/06/29 00:52:30;;;;;;;9.60;4.30;;;;;18.70;97712.20;;;;110379;1257;41866;-66
2022/06/29 00:55:05;;;;;;;9.80;4.10;;;;;18.70;97716.20;;;;110549;1255;41261;-68
2022/06/29 00:57:38;;;;;;;8.50;3.60;;;;;18.68;97709.20;;;;110615;1253;40937;-68
2022/06/29 01:00:09;;;;;;;8.80;3.60;;;;;18.70;97707.00;;;;110496;1255;41671;-68
2022/06/29 01:02:39;;;;;;;8.10;3.80;;;;;18.70;97706.40;;;;110591;1256;41191;-67
2022/06/29 01:05:09;;;;;;;7.70;3.60;;;;;18.76;97704.80;;;;110496;1254;41186;-67
2022/06/29 01:07:39;;;;;;;9.10;3.60;;;;;18.76;97705.80;;;;110472;1254;41619;-66
2022/06/29 01:10:09;;;;;;;7.50;3.30;;;;;18.72;97706.40;;;;110318;1254;41143;-67
2022/06/29 01:12:40;;;;;;;7.70;3.70;;;;;18.70;97701.80;;;;110485;1254;41621;-67
2022/06/29 01:15:11;;;;;;;8.60;4.00;;;;;18.70;97697.40;;;;110485;1254;41411;-67
2022/06/29 01:17:42;;;;;;;8.60;3.50;;;;;18.70;97694.60;;;;110512;1254;41170;-68
2022/06/29 01:20:12;;;;;;;;;;;;;18.70;97689.40;;;;110274;1255;41032;-67
2022/06/29 01:22:44;;;;;;;8.30;3.70;;;;;18.64;97692.40;;;;110239;1254;41161;-67
2022/06/29 01:25:15;;;;;;;8.20;4.10;;;;;18.66;97689.40;;;;110396;1256;42992;-67
2022/06/29 01:27:45;;;;;;;9.40;4.10;;;;;18.64;97689.00;;;;110457;1254;41134;-66
2022/06/29 01:30:16;;;;;;;10.60;4.00;;;;;18.60;97681.60;;;;110534;1255;41288;-67
2022/06/29 01:32:47;;;;;;;8.10;3.60;;;;;18.60;97676.80;;;;110496;1254;41336;-67
2022/06/29 01:35:22;;;;;;;8.30;3.70;;;;;18.60;97674.20;;;;110424;1254;41162;-67
2022/06/29 01:37:54;;;;;;;8.20;3.30;;;;;18.50;97676.80;;;;110375;1254;41615;-67
2022/06/29 01:40:25;;;;;;;7.50;3.00;;;;;18.50;97674.80;;;;110213;1254;41200;-67
2022/06/29 01:42:56;;;;;;;8.30;3.80;;;;;18.40;97676.00;;;;110420;1257;41312;-68
2022/06/29 01:45:27;;;;;;;8.70;3.70;;;;;18.26;97674.00;;;;110251;1254;41167;-68
2022/06/29 01:47:58;;;;;;;7.80;3.60;;;;;18.20;97675.80;;;;110367;1255;41266;-67
2022/06/29 01:50:29;;;;;;;8.40;3.90;;;;;18.00;97670.80;;;;110390;1256;41957;-67
2022/06/29 01:52:59;;;;;;;9.60;4.10;;;;;17.96;97669.00;;;;110582;1254;41260;-67
2022/06/29 01:55:30;;;;;;;7.70;3.60;;;;;17.90;97666.60;;;;110488;1254;41162;-67
2022/06/29 01:58:00;;;;;;;8.10;3.80;;;;;17.70;97670.20;;;;110362;1256;41187;-67
2022/06/29 02:00:30;;;;;;;8.30;3.90;;;;;17.70;97667.40;;;;110518;1254;41610;-67
2022/06/29 02:03:00;;;;;;;10.50;4.00;;;;;17.68;97666.80;;;;110402;1254;41274;-67
2022/06/29 02:05:30;;;;;;;9.60;4.00;;;;;17.70;97667.60;;;;110422;1253;41232;-66
2022/06/29 02:08:00;;;;;;;8.40;3.80;;;;;17.70;97665.80;;;;110520;1255;41150;-68
2022/06/29 02:10:32;;;;;;;11.30;3.70;;;;;17.60;97664.00;;;;110535;1255;42770;-66
2022/06/29 02:13:03;;;;;;;9.30;4.20;;;;;17.50;97665.80;;;;110488;1254;41232;-66
2022/06/29 02:15:35;;;;;;;9.10;3.80;;;;;17.50;97666.40;;;;110455;1254;41627;-67
2022/06/29 02:18:06;;;;;;;7.90;3.20;;;;;17.40;97667.20;;;;110541;1254;41894;-64
2022/06/29 02:20:37;;;;;;;6.90;2.90;;;;;17.40;97670.00;;;;110308;1257;42310;-67
2022/06/29 02:23:07;;;;;;;;;;;;;17.40;97668.00;;;;110277;1256;41158;-67
2022/06/29 02:25:38;;;;;;;8.90;4.30;;;;;17.30;97666.40;;;;110426;1254;41312;-67
2022/06/29 02:28:09;;;;;;;;;;;;;17.22;97662.60;;;;110543;1253;41162;-67
2022/06/29 02:36:18;;;;;;;6.40;3.00;;;;;17.10;97659.60;;;;110355;1254;41696;-68
2022/06/29 02:38:48;;;;;;;6.40;2.80;;;;;17.10;97664.80;;;;110458;1254;41204;-67
2022/06/29 02:41:19;;;;;;;6.80;3.10;;;;;17.04;97662.00;;;;110471;1253;41147;-67
2022/06/29 02:43:49;;;;;;;;;;;;;17.00;97666.00;;;;110319;1255;41269;-68
2022/06/29 02:46:19;;;;;;;10.40;3.90;;;;;17.00;97671.60;;;;110495;1253;41273;-67
2022/06/29 02:48:49;;;;;;;8.30;3.40;;;;;17.04;97664.80;;;;110474;1255;41408;-67
2022/06/29 02:51:21;;;;;;;8.10;3.40;;;;;17.10;97667.60;;;;110476;1256;41226;-66
2022/06/29 02:53:51;;;;;;;7.30;3.40;;;;;17.10;97664.80;;;;110307;1255;41863;-66
2022/06/29 02:56:22;;;;;;;7.80;3.10;;;;;17.10;97663.40;;;;110420;1254;41258;-65
2022/06/29 02:58:53;;;;;;;7.60;3.60;;;;;17.10;97664.80;;;;110306;1256;41402;-66
2022/06/29 03:01:23;;;;;;;10.60;3.90;;;;;17.20;97668.00;;;;110435;1253;41131;-66
2022/06/29 03:03:54;;;;;;;7.70;3.40;;;;;17.20;97672.00;;;;110404;1255;41603;-66
2022/06/29 03:06:24;;;;;;;8.20;3.10;;;;;17.20;97671.20;;;;110406;1255;41145;-66
2022/06/29 03:08:54;;;;;;;7.30;3.40;;;;;17.20;97677.00;;;;110455;1254;41736;-66
2022/06/29 03:11:24;;;;;;;12.60;3.90;;;;;17.20;97679.40;;;;110459;1254;41146;-66
2022/06/29 03:13:55;;;;;;;8.30;4.30;;;;;17.10;97684.60;;;;110272;1254;41135;-66
2022/06/29 03:16:25;;;;;;;8.80;3.90;;;;;17.00;97683.60;;;;110429;1253;41825;-66
2022/06/29 03:18:55;;;;;;;6.70;3.20;;;;;17.00;97681.80;;;;110464;1254;42184;-66
2022/06/29 03:21:25;;;;;;;6.40;3.00;;;;;17.00;97676.40;;;;110383;1254;41619;-66
2022/06/29 03:23:55;;;;;;;7.00;3.30;;;;;17.00;97674.20;;;;110531;1253;41421;-66
2022/06/29 03:26:26;;;;;;;8.40;3.40;;;;;17.00;97671.00;;;;110533;1253;41643;-66
2022/06/29 03:28:57;;;;;;;8.20;3.50;;;;;17.10;97666.80;;;;110441;1253;42056;-66
2022/06/29 03:31:27;;;;;;;8.40;3.50;;;;;17.10;97661.40;;;;110313;1254;41646;-67
2022/06/29 03:33:58;;;;;;;6.60;3.10;;;;;17.20;97660.40;;;;110497;1253;41158;-67
2022/06/29 03:36:29;;;;;;;8.40;3.30;;;;;17.20;97656.60;;;;110526;1253;41156;-66
2022/06/29 03:38:59;;;;;;;6.60;3.30;;;;;17.22;97652.00;;;;110432;1253;41290;-67
2022/06/29 03:41:30;;;;;;;9.20;4.00;;;;;17.30;97654.00;;;;110493;1253;41271;-67
2022/06/29 03:44:00;;;;;;;13.90;4.30;;;;;17.30;97646.60;;;;110428;1254;41184;-67
2022/06/29 03:46:30;;;;;;;11.50;4.50;;;;;17.30;97642.80;;;;110490;1254;41368;-67
2022/06/29 03:49:01;;;;;;;;;;;;;17.20;97644.00;;;;110528;1254;41163;-67
2022/06/29 03:51:31;;;;;;;9.00;3.80;;;;;17.30;97640.60;;;;110480;1254;41183;-66
2022/06/29 03:54:02;;;;;;;8.90;4.30;;;;;17.30;97635.60;;;;110339;1254;41250;-66
2022/06/29 03:56:33;;;;;;;9.20;5.00;;;;;17.40;97637.40;;;;110318;1254;42275;-66
2022/06/29 03:59:04;;;;;;;;;;;;;17.40;97633.00;;;;110485;1253;41153;-66
2022/06/29 04:01:34;;;;;;;16.30;10.00;;;;;17.50;97635.80;;;;110497;1254;41605;-66
2022/06/29 04:04:06;;;;;;;16.00;10.10;;;;;17.50;97636.00;;;;110482;1253;40879;-65
2022/06/29 04:06:36;;;;;;;13.70;7.20;;;;;17.60;97633.00;;;;110478;1255;41364;-67
2022/06/29 04:09:05;;;;;;;12.90;6.70;;;;;17.70;97630.60;;;;110388;1251;41169;-66
2022/06/29 04:11:54;;;;;;;13.00;6.20;;;;;17.80;97624.00;;;;110422;1254;41244;-66
2022/06/29 04:14:25;;;;;;;11.60;4.80;;;;;17.92;97617.20;;;;110518;1254;41330;-68
2022/06/29 04:16:57;;;;;;;9.60;4.90;;;;;18.08;97613.80;;;;110404;1253;41151;-66
2022/06/29 04:19:26;;;;;;;8.80;3.90;;;;;18.20;97611.00;;;;110407;1254;41535;-66
2022/06/29 04:21:56;;;;;;;9.00;4.50;;;;;18.42;97609.20;;;;110259;1254;41710;-66
2022/06/29 04:24:25;;;;;;;9.60;4.40;;;;;18.76;97607.20;;;;110454;1254;41321;-66
2022/06/29 04:26:55;;;;;;;9.90;4.00;;;;;20.04;97589.80;;;;110486;1254;41625;-66
2022/06/29 04:29:24;;;;;;;9.00;4.20;;;;;21.68;97577.00;;;;110542;1253;42097;-67
2022/06/29 04:31:54;;;;;;;7.60;3.80;;;;;23.14;97573.80;;;;110367;1254;41384;-68
2022/06/29 04:34:24;;;;;;;8.90;3.80;;;;;24.44;97570.40;;;;110385;1253;41927;-68
2022/06/29 04:36:53;;;;;;;9.80;4.60;;;;;25.30;97560.80;;;;110434;1254;41263;-68
2022/06/29 04:39:23;;;;;;;13.00;5.60;;;;;25.70;97564.60;;;;110479;1254;42499;-68
2022/06/29 04:41:53;;;;;;;11.70;5.10;;;;;25.86;97565.00;;;;110469;1255;41511;-68
2022/06/29 04:44:25;;;;;;;14.00;6.60;;;;;26.42;97566.60;;;;110375;1254;42423;-67
2022/06/29 04:46:55;;;;;;;19.10;7.00;;;;;26.60;97562.60;;;;110481;1254;42332;-69
2022/06/29 04:49:26;;;;;;;;;;;;;26.64;97562.40;;;;110466;1253;42336;-69
2022/06/29 04:51:55;;;;;;;13.30;6.40;;;;;26.70;97566.60;;;;110508;1255;41451;-68
2022/06/29 04:54:25;;;;;;;13.10;5.80;;;;;26.50;97568.00;;;;110622;1253;41413;-68
2022/06/29 04:56:55;;;;;;;12.90;5.30;;;;;27.00;97567.80;;;;110491;1254;41159;-69
2022/06/29 04:59:24;;;;;;;10.40;5.10;;;;;27.70;97567.00;;;;110497;1254;41179;-68
2022/06/29 05:01:56;;;;;;;8.50;4.20;;;;;28.30;97565.80;;;;110434;1254;41967;-68
2022/06/29 05:04:25;;;;;;;8.80;4.20;;;;;29.06;97564.80;;;;110596;1255;41842;-67
2022/06/29 05:06:54;;;;;;;10.50;4.10;;;;;29.60;97571.80;;;;110539;1254;41269;-68
2022/06/29 05:09:23;;;;;;;13.90;4.30;;;;;29.60;97572.20;;;;110488;1254;41158;-68
2022/06/29 05:11:52;;;;;;;11.50;4.20;;;;;29.50;97575.60;;;;110517;1254;41387;-68
2022/06/29 05:14:21;;;;;;;10.40;4.10;;;;;29.84;97578.60;;;;110426;1253;41144;-69
2022/06/29 05:16:50;;;;;;;13.90;4.40;;;;;29.98;97580.20;;;;110516;1256;41618;-69
2022/06/29 05:19:19;;;;;;;8.00;3.60;;;;;29.56;97578.40;;;;110558;1254;41494;-68
2022/06/29 05:21:47;;;;;;;10.80;4.00;;;;;29.20;97585.40;;;;110616;1255;41278;-68
2022/06/29 05:24:17;;;;;;;8.90;4.00;;;;;29.06;97591.40;;;;110522;1254;41373;-68
2022/06/29 05:26:46;;;;;;;9.70;3.90;;;;;28.98;97590.40;;;;110582;1254;41253;-69
2022/06/29 05:29:15;;;;;;;9.00;3.30;;;;;28.20;97600.60;;;;110555;1254;41259;-68
2022/06/29 05:31:44;;;;;;;8.30;3.10;;;;;27.42;97634.80;;;;110527;1254;41810;-68
2022/06/29 05:34:13;;;;;;;10.50;3.50;;;;;26.64;97642.20;;;;110551;1254;41152;-68
2022/06/29 05:36:42;;;;;;;9.60;3.80;;;;;25.84;97647.60;;;;110600;1253;41432;-69
2022/06/29 05:39:11;;;;;;;9.50;3.10;;;;;25.24;97646.40;;;;110332;1254;42310;-69
2022/06/29 05:41:40;;;;;;;7.80;3.20;;;;;25.10;97646.40;;;;110559;1253;41147;-69
2022/06/29 05:44:10;;;;;;;7.10;3.10;;;;;25.08;97644.60;;;;110515;1256;41739;-68
2022/06/29 05:46:39;;;;;;;8.10;3.30;;;;;25.00;97647.40;;;;110542;1255;41595;-70
2022/06/29 05:49:08;;;;;;;8.80;3.20;;;;;25.10;97645.20;;;;110633;1253;41863;-69
2022/06/29 05:51:37;;;;;;;7.50;3.20;;;;;25.00;97646.60;;;;110387;1256;41250;-68
2022/06/29 05:54:07;;;;;;;9.10;3.30;;;;;25.00;97646.60;;;;110619;1254;41421;-70
2022/06/29 05:56:36;;;;;;;8.70;3.40;;;;;25.10;97639.00;;;;110548;1253;41686;-68
2022/06/29 05:59:06;;;;;;;7.50;2.90;;;;;25.36;97622.20;;;;110463;1254;41883;-68
2022/06/29 06:01:35;;;;;;;7.80;3.00;;;;;26.34;97600.40;;;;110626;1254;40893;-68
2022/06/29 06:04:04;;;;;;;6.90;3.10;;;;;27.46;97597.80;;;;110656;1254;41267;-68
2022/06/29 06:06:33;;;;;;;9.00;3.20;;;;;28.02;97594.40;;;;110486;1256;42385;-69
2022/06/29 06:09:02;;;;;;;8.70;3.50;;;;;28.42;97591.20;;;;110591;1253;41637;-69
2022/06/29 06:11:31;;;;;;;11.50;3.30;;;;;28.94;97588.60;;;;110573;1256;41480;-69
2022/06/29 06:14:00;;;;;;;7.30;3.00;;;;;29.70;97588.40;;;;110580;1254;41619;-66
2022/06/29 06:16:29;;;;;;;8.10;3.10;;;;;30.26;97595.20;;;;110461;1253;41469;-68
2022/06/29 06:19:08;;;;;;;7.10;3.10;;;;;30.72;97593.00;;;;110489;1254;41282;-68
2022/06/29 06:21:38;;;;;;;8.40;2.90;;;;;31.30;97599.80;;;;110546;1255;41692;-69
2022/06/29 06:24:06;;;;;;;9.20;3.20;;;;;32.00;97611.20;;;;110587;1254;41146;-67
2022/06/29 06:26:35;;;;;;;9.20;2.90;;;;;32.88;97612.00;;;;110635;1253;41685;-68
2022/06/29 06:29:04;;;;;;;11.60;2.80;;;;;33.60;97608.80;;;;110547;1255;41172;-69
2022/06/29 06:31:34;;;;;;;8.50;2.50;;;;;34.00;97610.20;;;;110604;1254;41508;-69
2022/06/29 06:34:03;;;;;;;;;;;;;34.10;97605.80;;;;110636;1253;41379;-69
2022/06/29 06:36:32;;;;;;;6.60;2.20;;;;;34.04;97602.20;;;;110519;1254;41277;-69
2022/06/29 06:39:01;;;;;;;9.20;2.40;;;;;34.62;97604.80;;;;110560;1255;41280;-70
2022/06/29 06:41:30;;;;;;;6.90;2.50;;;;;34.60;97603.40;;;;110622;1253;41998;-71
2022/06/29 06:44:00;;;;;;;7.00;2.40;;;;;34.84;97601.40;;;;110624;1253;41182;-68
2022/06/29 06:46:30;;;;;;;6.30;2.30;;;;;34.82;97606.20;;;;110598;1253;41273;-68
2022/06/29 06:48:59;;;;;;;3.70;1.90;;;;;34.92;97603.40;;;;110554;1254;41268;-69
2022/06/29 06:51:28;;;;;;;3.40;1.80;;;;;35.64;97605.00;;;;110555;1254;42381;-69
2022/06/29 06:53:57;;;;;;;5.50;2.30;;;;;36.30;97605.00;;;;110618;1254;41666;-68
2022/06/29 06:56:26;;;;;;;5.50;2.40;;;;;36.22;97608.60;;;;110583;1254;42011;-67
2022/06/29 06:58:55;;;;;;;8.20;2.90;;;;;35.28;97607.40;;;;110442;1254;41277;-68
2022/06/29 07:01:25;;;;;;;5.90;2.50;;;;;34.82;97609.40;;;;110294;1254;41606;-71
2022/06/29 07:03:55;;;;;;;4.90;2.30;;;;;34.54;97610.60;;;;110622;1254;41152;-68
2022/06/29 07:06:24;;;;;;;6.50;2.70;;;;;34.88;97612.20;;;;110578;1254;42296;-70
2022/06/29 07:08:54;;;;;;;5.70;2.50;;;;;34.64;97615.40;;;;110496;1253;41510;-71
2022/06/29 07:11:23;;;;;;;7.60;2.50;;;;;34.18;97609.40;;;;110636;1254;41286;-68
2022/06/29 07:13:52;;;;;;;5.50;2.60;;;;;33.52;97613.40;;;;110594;1254;41490;-70
2022/06/29 07:16:20;;;;;;;6.90;2.90;;;;;32.68;97614.20;;;;110546;1254;41159;-67
2022/06/29 07:18:50;;;;;;;6.60;2.80;;;;;32.06;97618.20;;;;110298;1255;41259;-68
2022/06/29 07:21:19;;;;;;;5.50;2.40;;;;;31.56;97619.20;;;;110494;1253;41374;-69
2022/06/29 07:23:48;;;;;;;6.90;2.60;;;;;30.78;97626.00;;;;110460;1254;41157;-68
2022/06/29 07:26:17;;;;;;;6.10;2.80;;;;;30.34;97629.80;;;;110672;1253;42468;-68
2022/06/29 07:28:46;;;;;;;7.30;2.60;;;;;30.02;97634.60;;;;110138;1256;417079;-67
2022/06/29 07:31:15;;;;;;;8.60;2.80;;;;;29.90;97632.20;;;;110611;1253;41157;-67
2022/06/29 07:33:44;;;;;;;7.40;3.00;;;;;29.64;97636.60;;;;110604;1254;41261;-67
2022/06/29 07:36:18;;;;;;;6.20;2.50;;;;;29.50;97637.00;;;;110543;1254;41844;-69
2022/06/29 07:38:47;;;;;;;5.90;2.40;;;;;29.64;97639.60;;;;110569;1254;42378;-68
2022/06/29 07:41:16;;;;;;;5.90;2.30;;;;;29.82;97634.00;;;;110513;1253;41901;-69
2022/06/29 07:43:46;;;;;;;7.20;2.60;;;;;30.10;97629.80;;;;110552;1254;41193;-69
2022/06/29 07:46:15;;;;;;;6.90;2.40;;;;;30.32;97626.60;;;;110374;1257;41272;-69
2022/06/29 07:48:44;;;;;;;6.60;2.80;;;;;30.14;97624.60;;;;110448;1254;41181;-68
2022/06/29 07:51:14;;;;;;;7.10;2.40;;;;;29.88;97618.80;;;;110401;1254;41389;-70
2022/06/29 07:53:42;;;;;;;8.10;2.50;;;;;29.80;97623.00;;;;110504;1254;41154;-69
2022/06/29 07:56:11;;;;;;;6.50;2.40;;;;;29.90;97621.20;;;;110617;1253;41139;-70
2022/06/29 07:58:40;;;;;;;6.20;2.50;;;;;29.90;97622.60;;;;110635;1253;41262;-71
2022/06/29 08:01:09;;;;;;;7.60;2.50;;;;;30.10;97617.20;;;;110488;1254;42177;-70
2022/06/29 08:03:38;;;;;;;7.10;2.80;;;;;30.10;97614.40;;;;110445;1254;42847;-71
2022/06/29 08:06:07;;;;;;;4.90;2.20;;;;;30.10;97616.60;;;;110399;1256;41331;-69
2022/06/29 08:08:36;;;;;;;5.00;2.20;;;;;30.20;97618.80;;;;110443;1254;41939;-69
2022/06/29 08:11:06;;;;;;;8.90;2.50;;;;;30.40;97611.80;;;;110620;1253;41177;-69
2022/06/29 08:13:35;;;;;;;;;;;;;30.60;97603.00;;;;110600;1255;41122;-67
2022/06/29 08:16:08;;;;;;;5.60;2.20;;;;;30.90;97598.80;;;;110511;1254;41162;-68
2022/06/29 08:18:37;;;;;;;5.40;2.30;;;;;31.10;97599.00;;;;110543;1253;42297;-68
2022/06/29 08:21:06;;;;;;;7.10;2.70;;;;;31.00;97594.20;;;;110399;1253;41146;-67
2022/06/29 08:23:35;;;;;;;7.40;2.90;;;;;31.10;97585.40;;;;110506;1253;41337;-69
2022/06/29 08:26:04;;;;;;;7.50;2.80;;;;;31.20;97588.40;;;;110475;1256;41292;-69
2022/06/29 08:28:52;;;;;;;5.40;2.20;;;;;31.10;97584.40;;;;110616;1254;42472;-68
2022/06/29 08:31:21;;;;;;;6.80;2.40;;;;;31.00;97585.00;;;;110616;1254;41843;-69
2022/06/29 08:33:51;;;;;;;7.80;2.30;;;;;31.00;97585.00;;;;110546;1254;41175;-68
2022/06/29 08:36:22;;;;;;;3.70;1.90;;;;;30.96;97580.40;;;;110505;1253;41624;-68
2022/06/29 08:39:10;;;;;;;5.10;2.00;;;;;31.10;97577.60;;;;110501;1255;41153;-70
2022/06/29 08:41:41;;;;;;;9.40;2.40;;;;;31.30;97579.40;;;;110624;1253;41275;-69
2022/06/29 08:44:10;;;;;;;4.50;2.10;;;;;31.50;97571.60;;;;110601;1254;41130;-69
2022/06/29 08:46:39;;;;;;;8.60;2.40;;;;;31.18;97577.00;;;;110540;1253;41148;-70
2022/06/29 08:49:08;;;;;;;4.20;1.80;;;;;31.28;97581.40;;;;110637;1253;42100;-70
2022/06/29 08:51:41;;;;;;;5.90;2.10;;;;;31.16;97574.20;;;;110460;1253;42216;-70
2022/06/29 08:54:14;;;;;;;5.50;2.20;;;;;31.38;97567.80;;;;110283;1256;41128;-70
2022/06/29 08:56:44;;;;;;;6.50;2.00;;;;;31.38;97559.40;;;;110510;1252;41624;-70
2022/06/29 08:59:13;;;;;;;5.60;2.10;;;;;31.50;97561.80;;;;110612;1254;41656;-70
2022/06/29 09:01:42;;;;;;;5.90;2.10;;;;;31.70;97560.20;;;;110488;1256;41272;-70
2022/06/29 09:04:11;;;;;;;5.00;1.90;;;;;31.90;97558.40;;;;110589;1254;41535;-68
2022/06/29 09:06:40;;;;;;;7.10;2.60;;;;;32.00;97560.40;;;;110606;1254;41598;-68
2022/06/29 09:09:10;;;;;;;3.80;1.80;;;;;32.40;97563.80;;;;110492;1256;41959;-68
2022/06/29 09:11:46;;;;;;;5.20;2.00;;;;;32.58;97564.60;;;;110617;1253;41144;-68
2022/06/29 09:14:18;;;;;;;4.00;1.80;;;;;32.98;97566.80;;;;110572;1254;41809;-69
2022/06/29 09:17:00;;;;;;;3.00;1.50;;;;;33.16;97566.60;;;;110662;1254;41146;-69
2022/06/29 09:19:43;;;;;;;6.90;2.00;;;;;33.42;97561.20;;;;110602;1253;42451;-70
2022/06/29 09:22:12;;;;;;;2.50;1.40;;;;;33.90;97556.40;;;;110614;1254;41257;-69
2022/06/29 09:24:42;;;;;;;2.90;1.50;;;;;34.30;97556.40;;;;110593;1255;41272;-68
2022/06/29 09:27:36;;;;;;;5.00;2.10;;;;;35.30;97557.80;;;;110435;1253;41337;-68
2022/06/29 09:30:06;;;;;;;8.00;2.50;;;;;36.34;97551.00;;;;110609;1253;41269;-68
2022/06/29 09:32:34;;;;;;;3.00;1.70;;;;;36.30;97553.00;;;;110662;1253;41936;-67
2022/06/29 09:35:12;;;;;;;5.20;1.80;;;;;35.30;97550.40;;;;110505;1253;41186;-68
2022/06/29 09:37:41;;;;;;;4.70;2.00;;;;;35.74;97542.00;;;;110673;1253;41359;-69
2022/06/29 09:40:11;;;;;;;5.60;2.00;;;;;36.12;97535.20;;;;110426;1256;41602;-69
2022/06/29 09:42:40;;;;;;;3.90;1.70;;;;;36.90;97539.00;;;;110616;1253;41271;-70
2022/06/29 09:45:09;;;;;;;4.40;1.90;;;;;37.30;97537.20;;;;110569;1254;42573;-68
2022/06/29 09:47:38;;;;;;;3.70;1.70;;;;;37.64;97534.60;;;;110582;1254;41632;-68
2022/06/29 09:50:08;;;;;;;;;;;;;38.00;97532.40;;;;110636;1254;41164;-68
2022/06/29 09:52:39;;;;;;;3.50;1.60;;;;;38.22;97534.40;;;;110641;1253;41605;-68
2022/06/29 09:55:08;;;;;;;4.70;1.70;;;;;38.54;97537.00;;;;110612;1255;41319;-68
2022/06/29 09:57:38;;;;;;;5.00;1.80;;;;;38.60;97534.20;;;;110547;1256;42068;-68
2022/06/29 10:02:59;;;;;;;4.50;1.70;;;;;38.30;97540.60;;;;110427;1253;41148;-69
2022/06/29 10:05:54;;;;;;;2.10;1.40;;;;;37.96;97538.00;;;;110636;1253;41309;-68
2022/06/29 10:08:17;;;;;;;3.90;1.60;;;;;38.84;97541.60;;;;110505;1256;41270;-68
2022/06/29 10:10:54;;;;;;;3.50;1.50;;;;;39.68;97535.60;;;;110512;1253;42486;-67
2022/06/29 10:13:42;;;;;;;3.80;1.60;;;;;40.38;97531.60;;;;110525;1255;41950;-68
2022/06/29 10:16:14;;;;;;;2.30;1.50;;;;;40.88;97526.20;;;;110553;1253;41680;-68
2022/06/29 10:19:00;;;;;;;2.60;1.40;;;;;41.20;97526.80;;;;110522;1253;41594;-68
2022/06/29 10:21:32;;;;;;;2.30;1.50;;;;;41.18;97526.00;;;;110583;1254;41166;-68
2022/06/29 10:24:02;;;;;;;3.70;1.30;;;;;41.20;97528.00;;;;110598;1254;43037;-68
2022/06/29 10:26:32;;;;;;;4.30;1.50;;;;;41.00;97528.20;;;;110611;1254;41942;-67
2022/06/29 10:29:09;;;;;;;3.50;1.60;;;;;40.80;97527.60;;;;110563;1254;41270;-68
2022/06/29 10:31:54;;;;;;;4.40;1.60;;;;;40.68;97528.80;;;;110678;1254;41279;-69
2022/06/29 10:34:31;;;;;;;2.60;1.40;;;;;40.28;97529.60;;;;110633;1253;41276;-68
2022/06/29 10:37:05;;;;;;;3.40;1.50;;;;;40.00;97533.40;;;;110609;1255;42013;-69
2022/06/29 10:39:43;;;;;;;3.40;1.40;;;;;39.80;97525.00;;;;110676;1254;42003;-69
2022/06/29 10:45:17;;;;;;;3.90;1.60;;;;;39.50;97528.00;;;;110608;1253;41180;-69
2022/06/29 10:48:12;;;;;;;3.60;1.30;;;;;39.30;97520.20;;;;110623;1255;41549;-69
2022/06/29 10:50:42;;;;;;;3.30;1.30;;;;;39.30;97522.80;;;;110670;1253;42251;-68
2022/06/29 10:53:14;;;;;;;3.70;1.50;;;;;39.26;97518.20;;;;110455;1256;41728;-69
2022/06/29 10:55:51;;;;;;;1.90;1.30;;;;;39.22;97506.40;;;;110522;1253;41430;-68
2022/06/29 10:58:20;;;;;;;3.30;1.40;;;;;39.34;97501.60;;;;110630;1253;41319;-68
2022/06/29 11:00:53;;;;;;;;;;;;;39.66;97500.80;;;;110517;1256;41601;-68
2022/06/29 11:03:26;;;;;;;1.90;1.30;;;;;40.04;97501.80;;;;110596;1255;41736;-68
2022/06/29 11:17:39;;;;;;;3.30;1.20;;;;;41.60;97482.60;;;;110589;1254;42204;-69
2022/06/29 11:20:18;;;;;;;5.50;1.50;;;;;41.88;97478.00;;;;110499;1254;41398;-69
2022/06/29 11:22:53;;;;;;;5.00;1.50;;;;;42.02;97473.20;;;;110655;1254;41674;-70
2022/06/29 11:25:22;;;;;;;1.90;1.20;;;;;42.60;97471.80;;;;110545;1254;41147;-69
2022/06/29 11:27:51;;;;;;;5.90;1.80;;;;;43.00;97467.60;;;;110646;1253;41600;-69
2022/06/29 11:30:24;;;;;;;2.70;1.30;;;;;42.98;97465.80;;;;110618;1253;41164;-69
2022/06/29 11:32:52;;;;;;;2.90;1.50;;;;;42.74;97463.00;;;;110391;1253;43226;-69
2022/06/29 11:35:23;;;;;;;4.70;1.40;;;;;43.18;97464.20;;;;110655;1253;41189;-69
2022/06/29 11:37:53;;;;;;;2.50;1.40;;;;;43.20;97463.40;;;;110491;1254;42198;-69
2022/06/29 11:40:34;;;;;;;3.60;1.40;;;;;43.50;97459.60;;;;110704;1253;41267;-69
2022/06/29 11:43:12;;;;;;;3.00;1.40;;;;;43.86;97461.00;;;;110641;1253;41862;-69
2022/06/29 11:45:43;;;;;;;2.70;1.20;;;;;44.50;97458.60;;;;110726;1253;41154;-69
2022/06/29 11:48:27;;;;;;;2.00;1.20;;;;;44.64;97455.00;;;;110582;1254;41265;-69
2022/06/29 11:50:59;;;;;;;2.30;1.40;;;;;45.20;97446.60;;;;110653;1253;41180;-69
2022/06/29 11:53:43;;;;;;;2.00;1.20;;;;;45.70;97438.40;;;;110526;1253;41149;-69
2022/06/29 11:56:23;;;;;;;2.90;1.20;;;;;45.80;97440.00;;;;110533;1253;42169;-69
2022/06/29 11:58:55;;;;;;;1.60;1.20;;;;;46.30;97445.60;;;;110615;1253;41160;-69
2022/06/29 12:01:26;;;;;;;2.80;1.30;;;;;46.84;97439.20;;;;110575;1255;41149;-69
2022/06/29 12:03:56;;;;;;;2.40;1.60;;;;;46.28;97438.20;;;;110670;1253;41526;-69
2022/06/29 12:06:28;;;;;;;4.60;1.20;;;;;45.46;97436.60;;;;110534;1253;41705;-69
2022/06/29 12:08:57;;;;;;;3.70;1.60;;;;;43.20;97438.60;;;;110649;1254;42480;-70
2022/06/29 12:11:26;;;;;;;3.60;1.50;;;;;41.60;97439.40;;;;110625;1253;41451;-69
2022/06/29 12:13:55;;;;;;;2.90;1.40;;;;;39.50;97439.20;;;;110363;1254;42186;-69
2022/06/29 12:16:23;;;;;;;4.30;1.70;;;;;38.26;97441.60;;;;110623;1254;41273;-69
2022/06/29 12:18:52;;;;;;;3.70;1.70;;;;;37.30;97445.60;;;;110611;1253;41194;-69
2022/06/29 12:21:21;;;;;;;5.20;1.70;;;;;36.88;97443.80;;;;110517;1254;42522;-69
2022/06/29 12:23:51;;;;;;;3.50;1.60;;;;;36.50;97442.00;;;;110563;1253;41268;-69
2022/06/29 12:26:21;;;;;;;4.60;1.50;;;;;36.30;97440.40;;;;110642;1253;41167;-69
2022/06/29 12:28:50;;;;;;;2.40;1.20;;;;;36.04;97436.80;;;;110610;1254;41389;-69
2022/06/29 12:31:19;;;;;;;4.30;1.60;;;;;35.92;97437.80;;;;110595;1253;41185;-69
2022/06/29 12:33:48;;;;;;;4.20;1.60;;;;;35.88;97439.00;;;;110537;1254;41267;-69
2022/06/29 12:36:17;;;;;;;3.60;1.70;;;;;35.50;97434.00;;;;110432;1253;41848;-68
2022/06/29 12:38:46;;;;;;;4.90;1.50;;;;;35.20;97429.60;;;;110623;1253;42100;-69
2022/06/29 12:41:15;;;;;;;3.20;1.60;;;;;35.02;97433.80;;;;110480;1254;41611;-69
2022/06/29 12:43:44;;;;;;;4.00;1.70;;;;;35.00;97434.80;;;;110515;1255;41654;-70
2022/06/29 12:46:13;;;;;;;4.60;1.80;;;;;34.90;97429.20;;;;110642;1253;41155;-69
2022/06/29 12:48:42;;;;;;;2.60;1.40;;;;;34.80;97423.20;;;;110644;1253;41150;-70
2022/06/29 12:51:11;;;;;;;3.90;1.40;;;;;34.86;97421.80;;;;110644;1253;41313;-69